sensor_id;sensor_type;location;lat;lon;timestamp;P1;durP1;ratioP1;P2;durP2;ratioP2
47337;SDS011;33069;51.970;5.892;2023-04-29T00:01:07;75.28;;;40.78;;
47337;SDS011;33069;51.970;5.892;2023-04-29T00:03:33;83.68;;;44.25;;
47337;SDS011;33069;51.970;5.892;2023-04-29T00:06:00;81.43;;;43.58;;
47337;SDS011;33069;51.970;5.892;2023-04-29T00:08:26;80.00;;;41.50;;
47337;SDS011;33069;51.970;5.892;2023-04-29T00:10:51;75.20;;;38.63;;
47337;SDS011;33069;51.970;5.892;2023-04-29T00:13:17;89.40;;;49.30;;
47337;SDS011;33069;51.970;5.892;2023-04-29T00:15:43;85.18;;;44.35;;
47337;SDS011;33069;51.970;5.892;2023-04-29T00:18:09;95.70;;;46.92;;
47337;SDS011;33069;51.970;5.892;2023-04-29T00:20:35;96.47;;;49.85;;
47337;SDS011;33069;51.970;5.892;2023-04-29T00:23:02;109.38;;;51.10;;
47337;SDS011;33069;51.970;5.892;2023-04-29T00:25:28;105.10;;;53.05;;
47337;SDS011;33069;51.970;5.892;2023-04-29T00:27:55;110.25;;;49.55;;
47337;SDS011;33069;51.970;5.892;2023-04-29T00:30:24;120.00;;;55.00;;
47337;SDS011;33069;51.970;5.892;2023-04-29T00:32:49;128.88;;;55.28;;
47337;SDS011;33069;51.970;5.892;2023-04-29T00:35:15;112.32;;;52.17;;
47337;SDS011;33069;51.970;5.892;2023-04-29T00:37:41;106.40;;;51.60;;
47337;SDS011;33069;51.970;5.892;2023-04-29T00:40:06;129.30;;;60.70;;
47337;SDS011;33069;51.970;5.892;2023-04-29T00:42:33;132.45;;;57.55;;
47337;SDS011;33069;51.970;5.892;2023-04-29T00:44:58;127.53;;;56.25;;
47337;SDS011;33069;51.970;5.892;2023-04-29T00:47:24;141.23;;;60.00;;
47337;SDS011;33069;51.970;5.892;2023-04-29T00:49:50;118.60;;;54.03;;
47337;SDS011;33069;51.970;5.892;2023-04-29T00:52:16;129.88;;;60.10;;
47337;SDS011;33069;51.970;5.892;2023-04-29T00:54:43;121.72;;;55.20;;
47337;SDS011;33069;51.970;5.892;2023-04-29T00:57:08;133.05;;;55.75;;
47337;SDS011;33069;51.970;5.892;2023-04-29T00:59:34;138.70;;;59.78;;
47337;SDS011;33069;51.970;5.892;2023-04-29T01:02:01;133.77;;;81.38;;
47337;SDS011;33069;51.970;5.892;2023-04-29T01:04:28;109.80;;;53.17;;
47337;SDS011;33069;51.970;5.892;2023-04-29T01:12:32;92.20;;;46.78;;
47337;SDS011;33069;51.970;5.892;2023-04-29T01:15:10;103.38;;;47.63;;
47337;SDS011;33069;51.970;5.892;2023-04-29T01:17:49;86.00;;;45.70;;
47337;SDS011;33069;51.970;5.892;2023-04-29T01:20:21;89.55;;;43.60;;
47337;SDS011;33069;51.970;5.892;2023-04-29T01:22:47;91.50;;;42.78;;
47337;SDS011;33069;51.970;5.892;2023-04-29T01:25:13;79.43;;;41.25;;
47337;SDS011;33069;51.970;5.892;2023-04-29T01:27:47;80.50;;;40.55;;
47337;SDS011;33069;51.970;5.892;2023-04-29T01:30:47;83.85;;;42.13;;
47337;SDS011;33069;51.970;5.892;2023-04-29T01:38:53;100.78;;;47.88;;
47337;SDS011;33069;51.970;5.892;2023-04-29T01:43:55;84.57;;;43.90;;
47337;SDS011;33069;51.970;5.892;2023-04-29T01:46:22;82.30;;;40.22;;
47337;SDS011;33069;51.970;5.892;2023-04-29T01:48:51;74.00;;;39.65;;
47337;SDS011;33069;51.970;5.892;2023-04-29T01:51:18;74.43;;;38.83;;
47337;SDS011;33069;51.970;5.892;2023-04-29T01:53:44;79.32;;;40.85;;
47337;SDS011;33069;51.970;5.892;2023-04-29T01:56:09;77.68;;;38.95;;
47337;SDS011;33069;51.970;5.892;2023-04-29T01:58:35;72.57;;;38.38;;
47337;SDS011;33069;51.970;5.892;2023-04-29T02:01:01;74.60;;;40.53;;
47337;SDS011;33069;51.970;5.892;2023-04-29T02:03:26;75.38;;;43.00;;
47337;SDS011;33069;51.970;5.892;2023-04-29T02:05:52;71.10;;;38.75;;
47337;SDS011;33069;51.970;5.892;2023-04-29T02:08:18;82.57;;;42.42;;
47337;SDS011;33069;51.970;5.892;2023-04-29T02:10:53;72.85;;;39.58;;
47337;SDS011;33069;51.970;5.892;2023-04-29T02:13:20;72.03;;;39.40;;
47337;SDS011;33069;51.970;5.892;2023-04-29T02:15:45;66.82;;;36.85;;
47337;SDS011;33069;51.970;5.892;2023-04-29T02:18:11;68.35;;;37.45;;
47337;SDS011;33069;51.970;5.892;2023-04-29T02:20:37;72.18;;;40.67;;
47337;SDS011;33069;51.970;5.892;2023-04-29T02:23:03;67.07;;;37.00;;
47337;SDS011;33069;51.970;5.892;2023-04-29T02:25:29;63.00;;;35.05;;
47337;SDS011;33069;51.970;5.892;2023-04-29T02:27:54;62.28;;;35.75;;
47337;SDS011;33069;51.970;5.892;2023-04-29T02:30:20;71.78;;;38.15;;
47337;SDS011;33069;51.970;5.892;2023-04-29T02:32:46;69.80;;;38.35;;
47337;SDS011;33069;51.970;5.892;2023-04-29T02:35:11;64.50;;;34.50;;
47337;SDS011;33069;51.970;5.892;2023-04-29T02:37:37;72.18;;;39.08;;
47337;SDS011;33069;51.970;5.892;2023-04-29T02:40:03;70.78;;;39.55;;
47337;SDS011;33069;51.970;5.892;2023-04-29T02:42:30;68.78;;;37.92;;
47337;SDS011;33069;51.970;5.892;2023-04-29T02:44:55;61.95;;;35.20;;
47337;SDS011;33069;51.970;5.892;2023-04-29T02:47:21;63.22;;;34.17;;
47337;SDS011;33069;51.970;5.892;2023-04-29T02:49:47;68.05;;;35.80;;
47337;SDS011;33069;51.970;5.892;2023-04-29T02:52:14;58.58;;;31.17;;
47337;SDS011;33069;51.970;5.892;2023-04-29T02:54:41;57.58;;;32.25;;
47337;SDS011;33069;51.970;5.892;2023-04-29T02:57:07;59.13;;;32.05;;
47337;SDS011;33069;51.970;5.892;2023-04-29T02:59:33;62.92;;;34.67;;
47337;SDS011;33069;51.970;5.892;2023-04-29T03:01:59;63.20;;;34.13;;
47337;SDS011;33069;51.970;5.892;2023-04-29T03:04:26;63.80;;;32.75;;
47337;SDS011;33069;51.970;5.892;2023-04-29T03:06:53;57.67;;;31.15;;
47337;SDS011;33069;51.970;5.892;2023-04-29T03:09:21;61.70;;;36.40;;
47337;SDS011;33069;51.970;5.892;2023-04-29T03:11:47;61.88;;;34.20;;
47337;SDS011;33069;51.970;5.892;2023-04-29T03:14:13;61.70;;;33.25;;
47337;SDS011;33069;51.970;5.892;2023-04-29T03:16:39;72.10;;;36.97;;
47337;SDS011;33069;51.970;5.892;2023-04-29T03:19:05;63.03;;;34.83;;
47337;SDS011;33069;51.970;5.892;2023-04-29T03:21:31;66.32;;;33.42;;
47337;SDS011;33069;51.970;5.892;2023-04-29T03:23:56;66.80;;;35.55;;
47337;SDS011;33069;51.970;5.892;2023-04-29T03:26:22;64.07;;;35.33;;
47337;SDS011;33069;51.970;5.892;2023-04-29T03:28:49;55.50;;;31.35;;
47337;SDS011;33069;51.970;5.892;2023-04-29T03:31:15;58.30;;;32.70;;
47337;SDS011;33069;51.970;5.892;2023-04-29T03:33:41;59.72;;;33.60;;
47337;SDS011;33069;51.970;5.892;2023-04-29T03:36:07;67.40;;;37.60;;
47337;SDS011;33069;51.970;5.892;2023-04-29T03:38:33;60.55;;;33.58;;
47337;SDS011;33069;51.970;5.892;2023-04-29T03:40:59;66.35;;;37.10;;
47337;SDS011;33069;51.970;5.892;2023-04-29T03:43:25;63.72;;;34.97;;
47337;SDS011;33069;51.970;5.892;2023-04-29T03:45:51;59.92;;;34.08;;
47337;SDS011;33069;51.970;5.892;2023-04-29T03:48:17;56.72;;;34.08;;
47337;SDS011;33069;51.970;5.892;2023-04-29T03:50:44;58.17;;;31.95;;
47337;SDS011;33069;51.970;5.892;2023-04-29T03:53:10;63.58;;;35.03;;
47337;SDS011;33069;51.970;5.892;2023-04-29T03:55:36;59.85;;;31.77;;
47337;SDS011;33069;51.970;5.892;2023-04-29T03:58:02;57.85;;;34.30;;
47337;SDS011;33069;51.970;5.892;2023-04-29T04:00:29;62.70;;;35.45;;
47337;SDS011;33069;51.970;5.892;2023-04-29T04:02:56;56.70;;;30.52;;
47337;SDS011;33069;51.970;5.892;2023-04-29T04:05:22;52.22;;;30.75;;
47337;SDS011;33069;51.970;5.892;2023-04-29T04:07:52;65.55;;;35.65;;
47337;SDS011;33069;51.970;5.892;2023-04-29T04:10:18;66.05;;;34.72;;
47337;SDS011;33069;51.970;5.892;2023-04-29T04:12:44;57.85;;;35.75;;
47337;SDS011;33069;51.970;5.892;2023-04-29T04:15:11;61.25;;;30.90;;
47337;SDS011;33069;51.970;5.892;2023-04-29T04:17:37;61.95;;;34.17;;
47337;SDS011;33069;51.970;5.892;2023-04-29T04:20:03;57.65;;;31.95;;
47337;SDS011;33069;51.970;5.892;2023-04-29T04:22:29;53.40;;;28.38;;
47337;SDS011;33069;51.970;5.892;2023-04-29T04:24:55;55.63;;;30.73;;
47337;SDS011;33069;51.970;5.892;2023-04-29T04:27:21;63.17;;;35.92;;
47337;SDS011;33069;51.970;5.892;2023-04-29T04:29:47;55.55;;;31.92;;
47337;SDS011;33069;51.970;5.892;2023-04-29T04:32:17;54.63;;;32.83;;
47337;SDS011;33069;51.970;5.892;2023-04-29T04:34:42;51.97;;;33.42;;
47337;SDS011;33069;51.970;5.892;2023-04-29T04:37:08;53.47;;;32.42;;
47337;SDS011;33069;51.970;5.892;2023-04-29T04:39:34;50.05;;;31.50;;
47337;SDS011;33069;51.970;5.892;2023-04-29T04:41:59;52.97;;;32.47;;
47337;SDS011;33069;51.970;5.892;2023-04-29T04:44:27;66.28;;;47.30;;
47337;SDS011;33069;51.970;5.892;2023-04-29T04:46:54;47.25;;;27.42;;
47337;SDS011;33069;51.970;5.892;2023-04-29T04:49:21;47.42;;;30.83;;
47337;SDS011;33069;51.970;5.892;2023-04-29T04:51:48;46.42;;;30.45;;
47337;SDS011;33069;51.970;5.892;2023-04-29T04:54:15;46.38;;;28.75;;
47337;SDS011;33069;51.970;5.892;2023-04-29T04:56:41;47.35;;;29.27;;
47337;SDS011;33069;51.970;5.892;2023-04-29T04:59:07;47.78;;;28.50;;
47337;SDS011;33069;51.970;5.892;2023-04-29T05:01:32;40.83;;;27.05;;
47337;SDS011;33069;51.970;5.892;2023-04-29T05:03:58;52.45;;;30.80;;
47337;SDS011;33069;51.970;5.892;2023-04-29T05:06:24;45.20;;;29.15;;
47337;SDS011;33069;51.970;5.892;2023-04-29T05:08:50;39.92;;;27.48;;
47337;SDS011;33069;51.970;5.892;2023-04-29T05:11:16;36.20;;;25.63;;
47337;SDS011;33069;51.970;5.892;2023-04-29T05:13:43;39.92;;;26.67;;
47337;SDS011;33069;51.970;5.892;2023-04-29T05:16:08;40.78;;;26.13;;
47337;SDS011;33069;51.970;5.892;2023-04-29T05:18:34;36.28;;;23.25;;
47337;SDS011;33069;51.970;5.892;2023-04-29T05:21:00;36.88;;;27.02;;
47337;SDS011;33069;51.970;5.892;2023-04-29T05:23:26;38.05;;;25.92;;
47337;SDS011;33069;51.970;5.892;2023-04-29T05:25:52;37.83;;;25.08;;
47337;SDS011;33069;51.970;5.892;2023-04-29T05:28:18;36.65;;;25.35;;
47337;SDS011;33069;51.970;5.892;2023-04-29T05:30:43;37.88;;;25.80;;
47337;SDS011;33069;51.970;5.892;2023-04-29T05:33:09;41.40;;;26.23;;
47337;SDS011;33069;51.970;5.892;2023-04-29T05:35:36;39.25;;;27.23;;
47337;SDS011;33069;51.970;5.892;2023-04-29T05:38:02;35.13;;;24.83;;
47337;SDS011;33069;51.970;5.892;2023-04-29T05:40:28;40.17;;;27.52;;
47337;SDS011;33069;51.970;5.892;2023-04-29T05:42:53;41.42;;;29.25;;
47337;SDS011;33069;51.970;5.892;2023-04-29T05:45:19;38.20;;;25.73;;
47337;SDS011;33069;51.970;5.892;2023-04-29T05:47:45;39.15;;;27.45;;
47337;SDS011;33069;51.970;5.892;2023-04-29T05:50:11;36.55;;;25.17;;
47337;SDS011;33069;51.970;5.892;2023-04-29T05:52:37;47.20;;;27.80;;
47337;SDS011;33069;51.970;5.892;2023-04-29T05:55:03;42.97;;;27.92;;
47337;SDS011;33069;51.970;5.892;2023-04-29T05:57:29;38.38;;;27.85;;
47337;SDS011;33069;51.970;5.892;2023-04-29T05:59:55;43.17;;;27.63;;
47337;SDS011;33069;51.970;5.892;2023-04-29T06:02:21;39.05;;;28.77;;
47337;SDS011;33069;51.970;5.892;2023-04-29T06:04:47;44.58;;;28.73;;
47337;SDS011;33069;51.970;5.892;2023-04-29T06:07:13;45.00;;;26.13;;
47337;SDS011;33069;51.970;5.892;2023-04-29T06:09:39;37.90;;;26.75;;
47337;SDS011;33069;51.970;5.892;2023-04-29T06:12:05;46.03;;;28.58;;
47337;SDS011;33069;51.970;5.892;2023-04-29T06:14:31;44.08;;;30.38;;
47337;SDS011;33069;51.970;5.892;2023-04-29T06:16:56;40.47;;;27.35;;
47337;SDS011;33069;51.970;5.892;2023-04-29T06:19:22;40.28;;;28.50;;
47337;SDS011;33069;51.970;5.892;2023-04-29T06:24:39;40.88;;;28.38;;
47337;SDS011;33069;51.970;5.892;2023-04-29T06:27:05;40.65;;;26.23;;
47337;SDS011;33069;51.970;5.892;2023-04-29T06:29:31;40.88;;;27.45;;
47337;SDS011;33069;51.970;5.892;2023-04-29T06:31:57;41.28;;;27.20;;
47337;SDS011;33069;51.970;5.892;2023-04-29T06:34:22;44.15;;;27.40;;
47337;SDS011;33069;51.970;5.892;2023-04-29T06:36:48;44.83;;;27.05;;
47337;SDS011;33069;51.970;5.892;2023-04-29T06:39:13;39.03;;;25.95;;
47337;SDS011;33069;51.970;5.892;2023-04-29T06:41:39;38.85;;;25.25;;
47337;SDS011;33069;51.970;5.892;2023-04-29T06:44:05;37.17;;;25.13;;
47337;SDS011;33069;51.970;5.892;2023-04-29T06:46:31;37.00;;;27.17;;
47337;SDS011;33069;51.970;5.892;2023-04-29T06:48:56;34.20;;;24.63;;
47337;SDS011;33069;51.970;5.892;2023-04-29T06:51:22;32.38;;;22.27;;
47337;SDS011;33069;51.970;5.892;2023-04-29T06:53:57;42.65;;;26.70;;
47337;SDS011;33069;51.970;5.892;2023-04-29T06:56:24;35.85;;;22.23;;
47337;SDS011;33069;51.970;5.892;2023-04-29T06:58:49;71.63;;;65.03;;
47337;SDS011;33069;51.970;5.892;2023-04-29T07:01:15;36.35;;;25.50;;
47337;SDS011;33069;51.970;5.892;2023-04-29T07:03:41;38.65;;;23.70;;
47337;SDS011;33069;51.970;5.892;2023-04-29T07:06:07;32.67;;;21.17;;
47337;SDS011;33069;51.970;5.892;2023-04-29T07:08:33;36.00;;;24.42;;
47337;SDS011;33069;51.970;5.892;2023-04-29T07:10:59;39.00;;;24.48;;
47337;SDS011;33069;51.970;5.892;2023-04-29T07:13:24;37.33;;;23.17;;
47337;SDS011;33069;51.970;5.892;2023-04-29T07:15:50;31.05;;;18.73;;
47337;SDS011;33069;51.970;5.892;2023-04-29T07:18:16;31.08;;;21.85;;
47337;SDS011;33069;51.970;5.892;2023-04-29T07:20:42;39.03;;;22.20;;
47337;SDS011;33069;51.970;5.892;2023-04-29T07:23:08;28.05;;;18.85;;
47337;SDS011;33069;51.970;5.892;2023-04-29T07:25:46;33.90;;;19.73;;
47337;SDS011;33069;51.970;5.892;2023-04-29T07:28:30;31.88;;;22.48;;
47337;SDS011;33069;51.970;5.892;2023-04-29T07:30:56;34.65;;;21.67;;
47337;SDS011;33069;51.970;5.892;2023-04-29T07:33:22;32.47;;;20.35;;
47337;SDS011;33069;51.970;5.892;2023-04-29T07:35:47;32.95;;;21.98;;
47337;SDS011;33069;51.970;5.892;2023-04-29T07:38:13;29.13;;;19.48;;
47337;SDS011;33069;51.970;5.892;2023-04-29T07:40:40;28.75;;;19.50;;
47337;SDS011;33069;51.970;5.892;2023-04-29T07:43:06;27.23;;;18.63;;
47337;SDS011;33069;51.970;5.892;2023-04-29T07:45:33;30.02;;;18.45;;
47337;SDS011;33069;51.970;5.892;2023-04-29T07:47:59;25.63;;;16.75;;
47337;SDS011;33069;51.970;5.892;2023-04-29T07:50:24;31.65;;;21.60;;
47337;SDS011;33069;51.970;5.892;2023-04-29T07:52:50;30.17;;;19.73;;
47337;SDS011;33069;51.970;5.892;2023-04-29T07:55:16;28.27;;;19.20;;
47337;SDS011;33069;51.970;5.892;2023-04-29T07:57:42;31.27;;;21.00;;
47337;SDS011;33069;51.970;5.892;2023-04-29T08:00:07;29.33;;;18.58;;
47337;SDS011;33069;51.970;5.892;2023-04-29T08:02:33;26.58;;;18.88;;
47337;SDS011;33069;51.970;5.892;2023-04-29T08:04:59;27.42;;;17.20;;
47337;SDS011;33069;51.970;5.892;2023-04-29T08:07:26;29.42;;;17.13;;
47337;SDS011;33069;51.970;5.892;2023-04-29T08:09:51;25.58;;;16.98;;
47337;SDS011;33069;51.970;5.892;2023-04-29T08:12:17;27.90;;;17.27;;
47337;SDS011;33069;51.970;5.892;2023-04-29T08:14:43;26.42;;;16.83;;
47337;SDS011;33069;51.970;5.892;2023-04-29T08:17:09;23.08;;;15.48;;
47337;SDS011;33069;51.970;5.892;2023-04-29T08:19:34;21.13;;;16.02;;
47337;SDS011;33069;51.970;5.892;2023-04-29T08:22:00;22.33;;;15.30;;
47337;SDS011;33069;51.970;5.892;2023-04-29T08:24:28;28.40;;;16.55;;
47337;SDS011;33069;51.970;5.892;2023-04-29T08:26:54;24.35;;;15.18;;
47337;SDS011;33069;51.970;5.892;2023-04-29T08:29:20;22.90;;;16.00;;
47337;SDS011;33069;51.970;5.892;2023-04-29T08:31:45;29.13;;;15.43;;
47337;SDS011;33069;51.970;5.892;2023-04-29T08:34:11;22.10;;;16.05;;
47337;SDS011;33069;51.970;5.892;2023-04-29T08:36:37;24.55;;;17.85;;
47337;SDS011;33069;51.970;5.892;2023-04-29T08:39:03;24.15;;;19.25;;
47337;SDS011;33069;51.970;5.892;2023-04-29T08:41:30;28.02;;;16.15;;
47337;SDS011;33069;51.970;5.892;2023-04-29T08:43:58;26.15;;;16.00;;
47337;SDS011;33069;51.970;5.892;2023-04-29T08:46:24;26.60;;;16.40;;
47337;SDS011;33069;51.970;5.892;2023-04-29T08:48:51;22.30;;;14.32;;
47337;SDS011;33069;51.970;5.892;2023-04-29T08:51:17;21.48;;;16.05;;
47337;SDS011;33069;51.970;5.892;2023-04-29T08:53:43;18.65;;;15.05;;
47337;SDS011;33069;51.970;5.892;2023-04-29T08:56:12;21.63;;;14.13;;
47337;SDS011;33069;51.970;5.892;2023-04-29T08:58:44;17.35;;;14.32;;
47337;SDS011;33069;51.970;5.892;2023-04-29T09:01:10;22.80;;;14.40;;
47337;SDS011;33069;51.970;5.892;2023-04-29T09:06:11;18.27;;;16.33;;
47337;SDS011;33069;51.970;5.892;2023-04-29T09:08:38;16.15;;;13.00;;
47337;SDS011;33069;51.970;5.892;2023-04-29T09:11:04;17.85;;;14.00;;
47337;SDS011;33069;51.970;5.892;2023-04-29T09:13:34;17.25;;;14.27;;
47337;SDS011;33069;51.970;5.892;2023-04-29T09:16:00;16.92;;;13.07;;
47337;SDS011;33069;51.970;5.892;2023-04-29T09:18:45;15.30;;;12.88;;
47337;SDS011;33069;51.970;5.892;2023-04-29T09:21:18;16.30;;;12.68;;
47337;SDS011;33069;51.970;5.892;2023-04-29T09:23:50;19.85;;;14.88;;
47337;SDS011;33069;51.970;5.892;2023-04-29T09:26:17;22.05;;;13.88;;
47337;SDS011;33069;51.970;5.892;2023-04-29T09:28:43;14.80;;;12.20;;
47337;SDS011;33069;51.970;5.892;2023-04-29T09:31:11;19.33;;;12.23;;
47337;SDS011;33069;51.970;5.892;2023-04-29T09:33:51;15.35;;;12.25;;
47337;SDS011;33069;51.970;5.892;2023-04-29T09:39:02;18.52;;;13.38;;
47337;SDS011;33069;51.970;5.892;2023-04-29T09:41:30;14.35;;;12.35;;
47337;SDS011;33069;51.970;5.892;2023-04-29T09:44:06;14.38;;;11.60;;
47337;SDS011;33069;51.970;5.892;2023-04-29T09:46:32;13.70;;;11.55;;
47337;SDS011;33069;51.970;5.892;2023-04-29T09:48:59;14.57;;;11.82;;
47337;SDS011;33069;51.970;5.892;2023-04-29T09:51:25;18.67;;;13.57;;
47337;SDS011;33069;51.970;5.892;2023-04-29T09:53:50;17.80;;;12.98;;
47337;SDS011;33069;51.970;5.892;2023-04-29T09:56:16;19.33;;;13.85;;
47337;SDS011;33069;51.970;5.892;2023-04-29T09:58:42;15.45;;;12.07;;
47337;SDS011;33069;51.970;5.892;2023-04-29T10:01:08;13.65;;;11.98;;
47337;SDS011;33069;51.970;5.892;2023-04-29T10:03:35;18.38;;;12.45;;
47337;SDS011;33069;51.970;5.892;2023-04-29T10:06:02;15.13;;;12.77;;
47337;SDS011;33069;51.970;5.892;2023-04-29T10:08:29;14.18;;;12.68;;
47337;SDS011;33069;51.970;5.892;2023-04-29T10:11:00;14.93;;;12.65;;
47337;SDS011;33069;51.970;5.892;2023-04-29T10:13:27;15.23;;;12.00;;
47337;SDS011;33069;51.970;5.892;2023-04-29T10:18:34;15.15;;;12.13;;
47337;SDS011;33069;51.970;5.892;2023-04-29T10:21:02;13.65;;;11.50;;
47337;SDS011;33069;51.970;5.892;2023-04-29T10:23:30;14.18;;;10.70;;
47337;SDS011;33069;51.970;5.892;2023-04-29T10:25:57;13.30;;;10.27;;
47337;SDS011;33069;51.970;5.892;2023-04-29T10:28:25;12.57;;;10.10;;
47337;SDS011;33069;51.970;5.892;2023-04-29T10:30:54;18.48;;;11.55;;
47337;SDS011;33069;51.970;5.892;2023-04-29T10:33:21;11.32;;;9.90;;
47337;SDS011;33069;51.970;5.892;2023-04-29T10:35:47;13.25;;;10.65;;
47337;SDS011;33069;51.970;5.892;2023-04-29T10:38:19;13.43;;;11.35;;
47337;SDS011;33069;51.970;5.892;2023-04-29T10:40:50;16.35;;;14.88;;
47337;SDS011;33069;51.970;5.892;2023-04-29T10:43:21;15.48;;;13.98;;
47337;SDS011;33069;51.970;5.892;2023-04-29T10:45:48;13.85;;;11.07;;
47337;SDS011;33069;51.970;5.892;2023-04-29T10:48:14;13.52;;;11.93;;
47337;SDS011;33069;51.970;5.892;2023-04-29T10:53:16;12.77;;;11.57;;
47337;SDS011;33069;51.970;5.892;2023-04-29T10:55:46;17.42;;;12.95;;
47337;SDS011;33069;51.970;5.892;2023-04-29T11:01:14;12.40;;;11.20;;
47337;SDS011;33069;51.970;5.892;2023-04-29T11:06:24;12.10;;;10.98;;
47337;SDS011;33069;51.970;5.892;2023-04-29T11:09:17;12.90;;;11.10;;
47337;SDS011;33069;51.970;5.892;2023-04-29T11:12:07;13.35;;;10.90;;
47337;SDS011;33069;51.970;5.892;2023-04-29T11:14:35;11.05;;;10.07;;
47337;SDS011;33069;51.970;5.892;2023-04-29T11:17:08;12.15;;;10.85;;
47337;SDS011;33069;51.970;5.892;2023-04-29T11:19:40;12.13;;;10.85;;
47337;SDS011;33069;51.970;5.892;2023-04-29T11:24:49;11.55;;;10.52;;
47337;SDS011;33069;51.970;5.892;2023-04-29T11:27:18;11.57;;;10.68;;
47337;SDS011;33069;51.970;5.892;2023-04-29T11:29:48;11.70;;;10.60;;
47337;SDS011;33069;51.970;5.892;2023-04-29T11:32:15;12.10;;;10.90;;
47337;SDS011;33069;51.970;5.892;2023-04-29T11:34:44;12.57;;;11.50;;
47337;SDS011;33069;51.970;5.892;2023-04-29T11:37:10;12.55;;;11.27;;
47337;SDS011;33069;51.970;5.892;2023-04-29T11:39:35;12.65;;;11.45;;
47337;SDS011;33069;51.970;5.892;2023-04-29T11:42:02;13.02;;;11.90;;
47337;SDS011;33069;51.970;5.892;2023-04-29T11:44:34;13.25;;;11.73;;
47337;SDS011;33069;51.970;5.892;2023-04-29T11:47:03;11.18;;;10.15;;
47337;SDS011;33069;51.970;5.892;2023-04-29T11:49:30;11.25;;;10.15;;
47337;SDS011;33069;51.970;5.892;2023-04-29T11:51:59;12.10;;;11.05;;
47337;SDS011;33069;51.970;5.892;2023-04-29T11:54:26;12.50;;;11.48;;
47337;SDS011;33069;51.970;5.892;2023-04-29T11:56:55;12.32;;;11.15;;
47337;SDS011;33069;51.970;5.892;2023-04-29T11:59:22;12.52;;;11.52;;
47337;SDS011;33069;51.970;5.892;2023-04-29T12:01:49;11.50;;;10.50;;
47337;SDS011;33069;51.970;5.892;2023-04-29T12:04:15;12.23;;;11.20;;
47337;SDS011;33069;51.970;5.892;2023-04-29T12:06:45;11.98;;;10.90;;
47337;SDS011;33069;51.970;5.892;2023-04-29T12:09:10;10.75;;;9.88;;
47337;SDS011;33069;51.970;5.892;2023-04-29T12:11:36;11.00;;;9.93;;
47337;SDS011;33069;51.970;5.892;2023-04-29T12:14:02;11.00;;;10.05;;
47337;SDS011;33069;51.970;5.892;2023-04-29T12:16:33;11.73;;;10.13;;
47337;SDS011;33069;51.970;5.892;2023-04-29T12:18:59;10.95;;;10.00;;
47337;SDS011;33069;51.970;5.892;2023-04-29T12:21:25;10.85;;;9.52;;
47337;SDS011;33069;51.970;5.892;2023-04-29T12:23:57;9.88;;;8.93;;
47337;SDS011;33069;51.970;5.892;2023-04-29T12:26:26;10.43;;;8.85;;
47337;SDS011;33069;51.970;5.892;2023-04-29T12:28:53;10.15;;;9.10;;
47337;SDS011;33069;51.970;5.892;2023-04-29T12:31:21;11.02;;;9.82;;
47337;SDS011;33069;51.970;5.892;2023-04-29T12:33:48;10.98;;;9.80;;
47337;SDS011;33069;51.970;5.892;2023-04-29T12:36:15;12.13;;;9.52;;
47337;SDS011;33069;51.970;5.892;2023-04-29T12:38:42;12.98;;;10.10;;
47337;SDS011;33069;51.970;5.892;2023-04-29T12:41:08;10.60;;;9.50;;
47337;SDS011;33069;51.970;5.892;2023-04-29T12:43:34;9.95;;;8.93;;
47337;SDS011;33069;51.970;5.892;2023-04-29T12:46:08;10.43;;;9.32;;
47337;SDS011;33069;51.970;5.892;2023-04-29T12:48:37;9.38;;;8.65;;
47337;SDS011;33069;51.970;5.892;2023-04-29T12:51:07;10.52;;;9.52;;
47337;SDS011;33069;51.970;5.892;2023-04-29T12:53:36;10.90;;;9.85;;
47337;SDS011;33069;51.970;5.892;2023-04-29T12:56:02;9.63;;;8.63;;
47337;SDS011;33069;51.970;5.892;2023-04-29T12:58:31;11.98;;;9.50;;
47337;SDS011;33069;51.970;5.892;2023-04-29T13:00:58;10.82;;;9.45;;
47337;SDS011;33069;51.970;5.892;2023-04-29T13:03:24;9.80;;;8.50;;
47337;SDS011;33069;51.970;5.892;2023-04-29T13:05:50;10.10;;;9.00;;
47337;SDS011;33069;51.970;5.892;2023-04-29T13:08:18;8.73;;;7.88;;
47337;SDS011;33069;51.970;5.892;2023-04-29T13:10:44;9.50;;;8.57;;
47337;SDS011;33069;51.970;5.892;2023-04-29T13:13:10;10.45;;;9.48;;
47337;SDS011;33069;51.970;5.892;2023-04-29T13:15:36;10.80;;;9.60;;
47337;SDS011;33069;51.970;5.892;2023-04-29T13:18:03;9.82;;;8.82;;
47337;SDS011;33069;51.970;5.892;2023-04-29T13:23:52;10.45;;;9.35;;
47337;SDS011;33069;51.970;5.892;2023-04-29T13:26:18;9.90;;;8.98;;
47337;SDS011;33069;51.970;5.892;2023-04-29T13:28:45;9.77;;;8.98;;
47337;SDS011;33069;51.970;5.892;2023-04-29T13:31:10;10.02;;;9.20;;
47337;SDS011;33069;51.970;5.892;2023-04-29T13:33:36;9.73;;;8.98;;
47337;SDS011;33069;51.970;5.892;2023-04-29T13:36:02;9.80;;;9.00;;
47337;SDS011;33069;51.970;5.892;2023-04-29T13:38:27;10.00;;;9.02;;
47337;SDS011;33069;51.970;5.892;2023-04-29T13:40:54;9.98;;;9.15;;
47337;SDS011;33069;51.970;5.892;2023-04-29T13:43:20;9.73;;;9.02;;
47337;SDS011;33069;51.970;5.892;2023-04-29T13:45:46;9.85;;;9.15;;
47337;SDS011;33069;51.970;5.892;2023-04-29T13:48:11;9.77;;;8.98;;
47337;SDS011;33069;51.970;5.892;2023-04-29T13:50:37;9.50;;;8.60;;
47337;SDS011;33069;51.970;5.892;2023-04-29T13:53:05;9.10;;;8.30;;
47337;SDS011;33069;51.970;5.892;2023-04-29T13:55:31;10.48;;;8.68;;
47337;SDS011;33069;51.970;5.892;2023-04-29T13:57:59;9.07;;;8.48;;
47337;SDS011;33069;51.970;5.892;2023-04-29T14:00:25;8.88;;;8.15;;
47337;SDS011;33069;51.970;5.892;2023-04-29T14:02:51;9.18;;;8.50;;
47337;SDS011;33069;51.970;5.892;2023-04-29T14:05:16;11.25;;;10.00;;
47337;SDS011;33069;51.970;5.892;2023-04-29T14:07:42;9.25;;;8.52;;
47337;SDS011;33069;51.970;5.892;2023-04-29T14:10:08;8.90;;;8.10;;
47337;SDS011;33069;51.970;5.892;2023-04-29T14:12:34;9.07;;;8.32;;
47337;SDS011;33069;51.970;5.892;2023-04-29T14:15:00;9.75;;;8.85;;
47337;SDS011;33069;51.970;5.892;2023-04-29T14:17:26;9.35;;;8.55;;
47337;SDS011;33069;51.970;5.892;2023-04-29T14:19:51;9.57;;;8.43;;
47337;SDS011;33069;51.970;5.892;2023-04-29T14:22:17;9.13;;;8.23;;
47337;SDS011;33069;51.970;5.892;2023-04-29T14:24:43;8.98;;;8.20;;
47337;SDS011;33069;51.970;5.892;2023-04-29T14:27:08;9.15;;;8.40;;
47337;SDS011;33069;51.970;5.892;2023-04-29T14:29:34;9.25;;;8.45;;
47337;SDS011;33069;51.970;5.892;2023-04-29T14:32:00;8.68;;;7.97;;
47337;SDS011;33069;51.970;5.892;2023-04-29T14:34:26;9.50;;;7.90;;
47337;SDS011;33069;51.970;5.892;2023-04-29T14:36:51;9.88;;;7.43;;
47337;SDS011;33069;51.970;5.892;2023-04-29T14:39:17;9.23;;;8.07;;
47337;SDS011;33069;51.970;5.892;2023-04-29T14:41:43;8.85;;;8.05;;
47337;SDS011;33069;51.970;5.892;2023-04-29T14:44:08;9.68;;;8.70;;
47337;SDS011;33069;51.970;5.892;2023-04-29T14:46:34;10.13;;;9.30;;
47337;SDS011;33069;51.970;5.892;2023-04-29T14:49:00;11.10;;;9.20;;
47337;SDS011;33069;51.970;5.892;2023-04-29T14:51:26;9.85;;;8.88;;
47337;SDS011;33069;51.970;5.892;2023-04-29T14:53:52;10.98;;;10.02;;
47337;SDS011;33069;51.970;5.892;2023-04-29T14:56:18;11.43;;;10.38;;
47337;SDS011;33069;51.970;5.892;2023-04-29T14:58:43;11.70;;;10.70;;
47337;SDS011;33069;51.970;5.892;2023-04-29T15:01:09;10.80;;;9.70;;